createdAt,value
2022-10-26T00:00:52.359Z,39.42
2022-10-26T00:03:19.603Z,43.78
2022-10-26T00:05:46.657Z,44.35
2022-10-26T00:08:13.487Z,43.88
2022-10-26T00:10:40.604Z,42.95
2022-10-26T00:13:12.315Z,38.10
2022-10-26T00:15:42.788Z,35.95
2022-10-26T00:18:10.168Z,34.25
2022-10-26T00:20:36.874Z,36.95
2022-10-26T00:23:03.567Z,39.75
2022-10-26T00:25:30.141Z,36.08
2022-10-26T00:27:56.759Z,36.95
2022-10-26T00:30:23.535Z,37.50
2022-10-26T00:32:50.056Z,35.05
2022-10-26T00:35:23.055Z,40.33
2022-10-26T00:37:56.442Z,37.33
2022-10-26T00:40:27.971Z,33.60
2022-10-26T00:42:54.548Z,34.30
2022-10-26T00:45:25.022Z,38.10
2022-10-26T00:48:10.031Z,32.53
2022-10-26T00:50:42.690Z,31.73
2022-10-26T00:53:11.284Z,32.95
2022-10-26T00:55:42.484Z,31.50
2022-10-26T00:58:10.472Z,33.67
2022-10-26T01:00:37.763Z,29.33
2022-10-26T01:03:09.616Z,33.83
2022-10-26T01:05:40.099Z,30.13
2022-10-26T01:08:08.659Z,32.33
2022-10-26T01:10:37.833Z,30.88
2022-10-26T01:13:05.586Z,27.55
2022-10-26T01:16:21.767Z,29.08
2022-10-26T01:18:59.897Z,29.63
2022-10-26T01:21:54.250Z,29.35
2022-10-26T01:24:52.985Z,28.10
2022-10-26T01:27:30.664Z,28.92
2022-10-26T01:30:19.828Z,26.63
2022-10-26T01:33:02.596Z,31.83
2022-10-26T01:35:34.369Z,30.15
2022-10-26T01:38:11.049Z,30.33
2022-10-26T01:40:50.045Z,31.73
2022-10-26T01:43:18.420Z,33.95
2022-10-26T01:45:48.029Z,30.85
2022-10-26T01:48:19.063Z,32.58
2022-10-26T01:50:48.018Z,33.63
2022-10-26T01:53:15.973Z,30.35
2022-10-26T01:55:49.380Z,31.67
2022-10-26T01:58:43.275Z,31.25
2022-10-26T02:01:12.743Z,30.00
2022-10-26T02:03:39.331Z,32.15
2022-10-26T02:06:16.880Z,28.60
2022-10-26T02:08:58.208Z,29.83
2022-10-26T02:11:37.676Z,26.63
2022-10-26T02:14:18.347Z,27.10
2022-10-26T02:16:54.119Z,27.15
2022-10-26T02:19:33.112Z,25.98
2022-10-26T02:22:14.459Z,25.65
2022-10-26T02:24:42.577Z,26.97
2022-10-26T02:27:15.961Z,26.80
2022-10-26T02:29:44.352Z,24.88
2022-10-26T02:32:12.064Z,26.85
2022-10-26T02:34:44.334Z,25.60
2022-10-26T02:37:13.546Z,24.10
2022-10-26T02:39:41.789Z,26.38
2022-10-26T02:42:09.427Z,25.55
2022-10-26T02:44:47.344Z,28.20
2022-10-26T02:47:14.447Z,24.88
2022-10-26T02:49:41.211Z,26.15
2022-10-26T02:52:15.529Z,31.63
2022-10-26T02:54:50.017Z,30.42
2022-10-26T02:57:24.721Z,35.67
2022-10-26T02:59:52.795Z,38.65
2022-10-26T03:02:20.656Z,41.30
2022-10-26T03:04:50.101Z,40.80
2022-10-26T03:07:24.269Z,42.40
2022-10-26T03:09:51.688Z,40.88
2022-10-26T03:14:33.218Z,39.50
2022-10-26T03:16:59.972Z,44.47
2022-10-26T03:19:26.506Z,47.78
2022-10-26T03:24:07.364Z,42.13
2022-10-26T03:26:33.996Z,38.08
2022-10-26T03:29:00.517Z,39.55
2022-10-26T03:31:27.408Z,41.40
2022-10-26T03:33:53.890Z,41.17
2022-10-26T03:36:20.512Z,40.30
2022-10-26T03:38:47.028Z,41.80
2022-10-26T03:41:13.556Z,44.08
2022-10-26T03:43:40.087Z,42.65
2022-10-26T03:46:06.861Z,44.33
2022-10-26T03:48:33.344Z,43.97
2022-10-26T03:50:59.987Z,43.35
2022-10-26T03:53:27.101Z,44.78
2022-10-26T03:55:53.684Z,41.90
2022-10-26T03:58:20.292Z,38.97
2022-10-26T04:00:47.792Z,38.97
2022-10-26T04:03:14.285Z,41.15
2022-10-26T04:05:40.961Z,53.35
2022-10-26T04:08:08.863Z,49.17
2022-10-26T04:10:35.568Z,44.53
2022-10-26T04:13:02.149Z,52.75
2022-10-26T04:15:29.255Z,46.38
2022-10-26T04:18:00.424Z,43.55
2022-10-26T04:20:28.604Z,46.50
2022-10-26T04:23:04.249Z,42.58
2022-10-26T04:25:33.235Z,42.53
2022-10-26T04:28:03.261Z,43.05
2022-10-26T04:30:30.564Z,42.42
2022-10-26T04:32:57.083Z,42.80
2022-10-26T04:35:23.946Z,46.25
2022-10-26T04:37:50.525Z,55.97
2022-10-26T04:40:17.112Z,48.55
2022-10-26T04:42:48.104Z,50.00
2022-10-26T04:45:16.262Z,61.70
2022-10-26T04:47:43.069Z,57.33
2022-10-26T04:50:11.553Z,55.05
2022-10-26T04:52:38.345Z,51.75
2022-10-26T04:55:06.316Z,45.17
2022-10-26T04:57:33.736Z,60.60
2022-10-26T05:00:01.373Z,59.25
2022-10-26T05:02:29.201Z,56.90
2022-10-26T05:04:55.921Z,48.95
2022-10-26T05:07:22.566Z,53.20
2022-10-26T05:09:49.136Z,47.00
2022-10-26T05:12:15.766Z,46.20
2022-10-26T05:14:42.451Z,46.58
2022-10-26T05:17:08.937Z,39.50
2022-10-26T05:19:35.484Z,40.10
2022-10-26T05:22:02.041Z,42.28
2022-10-26T05:24:28.571Z,37.58
2022-10-26T05:26:55.246Z,41.95
2022-10-26T05:29:21.916Z,42.35
2022-10-26T05:31:48.396Z,40.58
2022-10-26T05:34:14.952Z,41.65
2022-10-26T05:36:41.910Z,60.25
2022-10-26T05:39:08.500Z,43.13
2022-10-26T05:41:34.990Z,44.85
2022-10-26T05:44:01.660Z,44.00
2022-10-26T05:46:28.176Z,46.67
2022-10-26T05:48:54.767Z,46.70
2022-10-26T05:51:21.364Z,46.35
2022-10-26T05:53:48.539Z,57.85
2022-10-26T05:56:20.970Z,62.10
2022-10-26T05:58:48.723Z,40.75
2022-10-26T06:01:46.340Z,39.92
2022-10-26T06:04:36.052Z,43.53
2022-10-26T06:07:03.291Z,43.38
2022-10-26T06:09:30.113Z,44.45
2022-10-26T06:11:56.996Z,47.10
2022-10-26T06:14:23.717Z,42.67
2022-10-26T06:16:50.207Z,47.70
2022-10-26T06:19:54.845Z,48.30
2022-10-26T06:22:32.793Z,46.08
2022-10-26T06:25:30.483Z,47.67
2022-10-26T06:28:19.510Z,44.40
2022-10-26T06:30:46.180Z,47.35
2022-10-26T06:33:24.896Z,48.90
2022-10-26T06:36:07.628Z,46.05
2022-10-26T06:38:36.231Z,48.75
2022-10-26T06:41:03.649Z,46.83
2022-10-26T06:43:34.202Z,48.22
2022-10-26T06:46:09.976Z,50.67
2022-10-26T06:48:59.189Z,53.75
2022-10-26T06:51:27.568Z,51.92
2022-10-26T06:54:06.901Z,58.00
2022-10-26T06:56:34.112Z,56.58
2022-10-26T06:59:08.212Z,56.35
2022-10-26T07:01:35.060Z,54.55
2022-10-26T07:04:01.708Z,53.28
2022-10-26T07:06:28.289Z,54.30
2022-10-26T07:08:54.960Z,51.83
2022-10-26T07:11:21.647Z,50.22
2022-10-26T07:13:49.987Z,50.47
2022-10-26T07:16:16.584Z,54.35
2022-10-26T07:18:43.094Z,54.58
2022-10-26T07:21:10.510Z,47.45
2022-10-26T07:23:37.039Z,67.22
2022-10-26T07:26:03.664Z,61.55
2022-10-26T07:28:30.393Z,64.13
2022-10-26T07:30:58.460Z,55.22
2022-10-26T07:33:24.974Z,54.75
2022-10-26T07:35:52.991Z,51.13
2022-10-26T07:38:19.872Z,52.63
2022-10-26T07:40:46.740Z,52.88
2022-10-26T07:43:13.392Z,51.22
2022-10-26T07:45:40.674Z,51.95
2022-10-26T07:48:07.586Z,51.83
2022-10-26T07:50:34.202Z,50.10
2022-10-26T07:53:00.760Z,48.85
2022-10-26T07:55:28.190Z,45.78
2022-10-26T07:57:55.867Z,46.10
2022-10-26T08:00:23.008Z,45.90
2022-10-26T08:02:49.527Z,43.90
2022-10-26T08:05:16.298Z,43.22
2022-10-26T08:07:44.630Z,40.97
2022-10-26T08:12:43.565Z,44.75
2022-10-26T08:15:10.524Z,43.95
2022-10-26T08:17:37.066Z,40.22
2022-10-26T08:20:03.959Z,39.63
2022-10-26T08:24:58.679Z,35.08
2022-10-26T08:27:25.584Z,34.15
2022-10-26T08:32:06.880Z,36.42
2022-10-26T08:34:33.538Z,33.05
2022-10-26T08:37:00.094Z,33.85
2022-10-26T08:39:28.541Z,33.25
2022-10-26T08:42:11.376Z,32.03
2022-10-26T08:44:47.829Z,33.58
2022-10-26T08:47:28.569Z,32.72
2022-10-26T08:50:03.204Z,30.40
2022-10-26T08:52:38.537Z,29.45
2022-10-26T08:55:11.833Z,31.08
2022-10-26T08:57:41.700Z,32.45
2022-10-26T09:00:22.629Z,30.15
2022-10-26T09:02:53.496Z,27.40
2022-10-26T09:05:42.112Z,27.95
2022-10-26T09:08:21.293Z,26.35
2022-10-26T09:11:06.830Z,24.00
2022-10-26T09:14:04.083Z,24.10
2022-10-26T09:16:59.636Z,25.73
2022-10-26T09:20:07.893Z,21.05
2022-10-26T09:22:57.954Z,21.13
2022-10-26T09:25:29.617Z,20.52
2022-10-26T09:28:01.550Z,22.13
2022-10-26T09:30:30.238Z,20.35
2022-10-26T09:33:02.429Z,18.98
2022-10-26T09:36:13.231Z,18.60
2022-10-26T09:39:01.299Z,17.88
2022-10-26T09:41:45.392Z,18.27
2022-10-26T09:44:20.430Z,18.40
2022-10-26T09:47:36.797Z,15.43
2022-10-26T09:50:20.265Z,15.55
2022-10-26T09:52:47.464Z,16.75
2022-10-26T09:55:14.983Z,15.13
2022-10-26T09:57:45.592Z,14.40
2022-10-26T10:00:17.621Z,14.93
2022-10-26T10:02:47.383Z,13.30
2022-10-26T10:05:50.382Z,12.85
2022-10-26T10:08:22.833Z,12.52
2022-10-26T10:11:13.794Z,11.38
2022-10-26T10:13:43.274Z,10.57
2022-10-26T10:16:21.987Z,11.05
2022-10-26T10:19:00.342Z,9.98
2022-10-26T10:21:34.909Z,6.97
2022-10-26T10:24:01.671Z,6.57
2022-10-26T10:26:28.285Z,4.53
2022-10-26T10:29:02.566Z,3.75
2022-10-26T10:31:33.716Z,4.18
2022-10-26T10:34:00.513Z,4.50
2022-10-26T10:36:30.136Z,7.93
2022-10-26T10:38:56.857Z,7.68
2022-10-26T10:41:32.474Z,4.63
2022-10-26T10:44:29.807Z,5.03
2022-10-26T10:47:06.789Z,3.55
2022-10-26T10:49:34.156Z,4.45
2022-10-26T10:52:00.708Z,4.25
2022-10-26T10:54:34.494Z,3.28
2022-10-26T10:57:01.003Z,5.05
2022-10-26T10:59:40.192Z,4.07
2022-10-26T11:02:09.883Z,3.42
2022-10-26T11:05:13.801Z,4.38
2022-10-26T11:08:03.381Z,4.25
2022-10-26T11:10:38.344Z,3.53
2022-10-26T11:13:17.588Z,4.65
2022-10-26T11:15:48.645Z,4.07
2022-10-26T11:18:48.892Z,3.40
2022-10-26T11:21:31.085Z,3.95
2022-10-26T11:24:10.859Z,4.38
2022-10-26T11:26:46.215Z,4.45
2022-10-26T11:29:25.568Z,4.22
2022-10-26T11:32:01.495Z,4.45
2022-10-26T11:34:54.336Z,5.38
2022-10-26T11:37:27.898Z,3.63
2022-10-26T11:40:23.131Z,4.47
2022-10-26T11:43:01.828Z,4.95
2022-10-26T11:45:32.801Z,4.75
2022-10-26T11:48:31.851Z,5.75
2022-10-26T11:51:00.035Z,5.82
2022-10-26T11:53:34.117Z,4.25
2022-10-26T11:56:03.571Z,3.08
2022-10-26T11:58:32.499Z,2.78
2022-10-26T12:01:09.653Z,2.50
2022-10-26T12:03:50.976Z,2.63
2022-10-26T12:06:24.893Z,2.77
2022-10-26T12:09:02.305Z,2.50
2022-10-26T12:11:31.753Z,2.13
2022-10-26T12:14:24.367Z,2.88
2022-10-26T12:16:57.039Z,2.55
2022-10-26T12:19:46.313Z,2.20
2022-10-26T12:22:17.237Z,2.40
2022-10-26T12:24:45.559Z,2.38
2022-10-26T12:27:49.205Z,3.08
2022-10-26T12:30:18.784Z,2.55
2022-10-26T12:32:45.332Z,2.00
2022-10-26T12:35:35.121Z,3.63
2022-10-26T12:38:23.666Z,2.58
2022-10-26T12:41:05.300Z,2.08
2022-10-26T12:43:31.962Z,1.95
2022-10-26T12:46:13.677Z,2.28
2022-10-26T12:48:44.552Z,2.42
2022-10-26T12:51:24.697Z,2.33
2022-10-26T12:54:33.387Z,1.65
2022-10-26T12:57:05.730Z,2.05
2022-10-26T12:59:52.936Z,2.08
2022-10-26T13:02:19.705Z,1.67
2022-10-26T13:05:07.821Z,1.92
2022-10-26T13:07:42.614Z,1.88
2022-10-26T13:10:12.161Z,1.92
2022-10-26T13:12:49.238Z,2.33
2022-10-26T13:15:53.253Z,2.40
2022-10-26T13:18:21.954Z,3.22
2022-10-26T13:21:13.686Z,2.00
2022-10-26T13:24:14.056Z,2.28
2022-10-26T13:27:05.322Z,2.00
2022-10-26T13:29:33.366Z,1.70
2022-10-26T13:32:02.868Z,2.13
2022-10-26T13:34:31.889Z,2.33
2022-10-26T13:37:10.283Z,3.00
2022-10-26T13:39:41.490Z,2.45
2022-10-26T13:42:16.372Z,2.60
2022-10-26T13:44:46.169Z,2.95
2022-10-26T13:47:24.018Z,3.15
2022-10-26T13:49:54.651Z,2.15
2022-10-26T13:52:40.045Z,2.80
2022-10-26T13:55:21.634Z,2.75
2022-10-26T13:58:18.553Z,3.40
2022-10-26T14:01:13.182Z,2.85
2022-10-26T14:03:40.968Z,1.92
2022-10-26T14:06:35.968Z,2.85
2022-10-26T14:09:06.631Z,2.22
2022-10-26T14:11:44.441Z,2.55
2022-10-26T14:14:19.804Z,2.22
2022-10-26T14:16:47.548Z,3.60
2022-10-26T14:19:29.041Z,3.15
2022-10-26T14:21:57.572Z,2.28
2022-10-26T14:24:45.564Z,2.90
2022-10-26T14:27:18.237Z,2.83
2022-10-26T14:29:49.976Z,2.40
2022-10-26T14:32:32.029Z,2.83
2022-10-26T14:34:58.613Z,3.28
2022-10-26T14:37:43.190Z,3.75
2022-10-26T14:40:18.453Z,3.40
2022-10-26T14:42:50.776Z,3.38
2022-10-26T14:45:48.083Z,3.42
2022-10-26T14:48:35.665Z,58.60
2022-10-26T14:51:03.905Z,47.05
2022-10-26T14:53:36.928Z,6.00
2022-10-26T14:56:05.299Z,3.00
2022-10-26T14:58:33.947Z,3.20
2022-10-26T15:01:22.263Z,3.65
2022-10-26T15:03:58.115Z,3.70
2022-10-26T15:06:28.490Z,5.15
2022-10-26T15:09:00.765Z,9.93
2022-10-26T15:11:28.752Z,52.90
2022-10-26T15:13:57.316Z,37.63
2022-10-26T15:16:29.834Z,25.27
2022-10-26T15:19:11.564Z,7.13
2022-10-26T15:21:46.289Z,15.52
2022-10-26T15:24:32.112Z,47.13
2022-10-26T15:27:02.023Z,13.50
2022-10-26T15:29:43.180Z,13.07
2022-10-26T15:32:28.777Z,18.80
2022-10-26T15:35:18.146Z,29.10
2022-10-26T15:37:48.543Z,28.98
2022-10-26T15:40:15.698Z,34.97
2022-10-26T15:42:45.186Z,6.53
2022-10-26T15:45:20.370Z,22.42
2022-10-26T15:47:51.706Z,13.52
2022-10-26T15:50:22.739Z,3.72
2022-10-26T15:52:50.267Z,7.72
2022-10-26T15:55:17.613Z,6.15
2022-10-26T15:57:44.527Z,5.85
2022-10-26T16:00:15.853Z,16.73
2022-10-26T16:02:44.261Z,51.03
2022-10-26T16:05:16.195Z,63.00
2022-10-26T16:07:45.312Z,59.67
2022-10-26T16:10:24.891Z,80.47
2022-10-26T16:12:52.543Z,100.53
2022-10-26T16:15:22.373Z,74.13
2022-10-26T16:17:49.916Z,66.40
2022-10-26T16:20:27.717Z,53.38
2022-10-26T16:22:54.627Z,19.02
2022-10-26T16:25:24.176Z,9.43
2022-10-26T16:27:51.631Z,10.75
2022-10-26T16:30:19.827Z,18.33
2022-10-26T16:32:47.301Z,23.98
2022-10-26T16:35:15.651Z,20.27
2022-10-26T16:37:42.499Z,17.23
2022-10-26T16:40:09.688Z,13.63
2022-10-26T16:42:36.455Z,12.50
2022-10-26T16:45:03.581Z,11.85
2022-10-26T16:47:35.506Z,11.23
2022-10-26T16:50:03.824Z,10.15
2022-10-26T16:52:30.530Z,8.63
2022-10-26T16:54:57.079Z,26.02
2022-10-26T16:57:24.039Z,19.02
2022-10-26T16:59:50.736Z,14.52
2022-10-26T17:02:17.859Z,12.88
2022-10-26T17:04:44.612Z,17.05
2022-10-26T17:07:11.204Z,14.10
2022-10-26T17:09:37.967Z,9.43
2022-10-26T17:12:05.269Z,5.10
2022-10-26T17:14:32.638Z,5.20
2022-10-26T17:16:59.164Z,4.85
2022-10-26T17:19:25.855Z,5.57
2022-10-26T17:21:52.353Z,6.93
2022-10-26T17:24:18.971Z,5.93
2022-10-26T17:26:45.593Z,6.25
2022-10-26T17:29:15.627Z,11.50
2022-10-26T17:34:13.331Z,25.88
2022-10-26T17:36:40.170Z,15.43
2022-10-26T17:39:06.739Z,12.77
2022-10-26T17:41:33.334Z,14.27
2022-10-26T17:43:59.823Z,12.32
2022-10-26T17:46:26.956Z,14.55
2022-10-26T17:48:58.729Z,32.00
2022-10-26T17:51:26.973Z,21.42
2022-10-26T17:53:54.361Z,22.20
2022-10-26T17:56:25.886Z,22.42
2022-10-26T17:58:57.965Z,19.67
2022-10-26T18:03:52.357Z,10.13
2022-10-26T18:06:19.997Z,7.07
2022-10-26T18:08:47.068Z,8.93
2022-10-26T18:11:19.118Z,14.90
2022-10-26T18:13:48.282Z,13.38
2022-10-26T18:16:22.258Z,11.65
2022-10-26T18:18:50.273Z,10.13
2022-10-26T18:21:19.385Z,9.95
2022-10-26T18:23:46.727Z,9.30
2022-10-26T18:26:17.397Z,11.25
2022-10-26T18:28:44.991Z,14.20
2022-10-26T18:33:41.289Z,16.10
2022-10-26T18:36:12.783Z,17.17
2022-10-26T18:38:40.451Z,19.02
2022-10-26T18:41:10.274Z,26.85
2022-10-26T18:43:41.610Z,28.75
2022-10-26T18:46:11.457Z,37.70
2022-10-26T18:48:38.773Z,30.60
2022-10-26T18:51:10.817Z,28.15
2022-10-26T18:56:10.166Z,21.90
2022-10-26T18:58:39.619Z,19.25
2022-10-26T19:01:17.852Z,25.90
2022-10-26T19:03:45.802Z,26.50
2022-10-26T19:06:18.052Z,20.63
2022-10-26T19:11:02.888Z,29.83
2022-10-26T19:13:29.480Z,27.85
2022-10-26T19:16:07.219Z,30.60
2022-10-26T19:18:39.417Z,29.67
2022-10-26T19:21:28.175Z,30.17
2022-10-26T19:23:57.514Z,28.25
2022-10-26T19:26:33.411Z,27.08
2022-10-26T19:29:03.621Z,26.55
2022-10-26T19:33:59.777Z,21.55
2022-10-26T19:36:27.278Z,23.48
2022-10-26T19:38:54.674Z,24.58
2022-10-26T19:41:23.414Z,28.77
2022-10-26T19:43:50.403Z,28.58
2022-10-26T19:46:21.035Z,27.90
2022-10-26T19:48:55.119Z,23.50
2022-10-26T19:51:22.722Z,21.33
2022-10-26T19:53:49.566Z,23.20
2022-10-26T19:56:16.863Z,22.70
2022-10-26T19:58:44.478Z,18.52
2022-10-26T20:01:12.923Z,16.85
2022-10-26T20:03:39.641Z,16.77
2022-10-26T20:06:11.195Z,16.88
2022-10-26T20:08:40.353Z,20.65
2022-10-26T20:11:10.293Z,24.02
2022-10-26T20:13:40.661Z,23.13
2022-10-26T20:16:07.990Z,19.52
2022-10-26T20:18:34.926Z,16.20
2022-10-26T20:21:01.572Z,16.40
2022-10-26T20:23:28.198Z,17.83
2022-10-26T20:25:55.597Z,20.88
2022-10-26T20:28:23.780Z,22.60
2022-10-26T20:30:50.342Z,27.20
2022-10-26T20:33:16.952Z,25.15
2022-10-26T20:35:43.590Z,25.45
2022-10-26T20:38:19.524Z,27.08
2022-10-26T20:40:59.392Z,26.25
2022-10-26T20:43:27.519Z,20.92
2022-10-26T20:45:54.671Z,22.10
2022-10-26T20:48:22.940Z,23.15
2022-10-26T20:50:55.757Z,25.58
2022-10-26T20:53:39.869Z,26.30
2022-10-26T20:56:10.629Z,21.02
2022-10-26T20:58:58.334Z,21.05
2022-10-26T21:01:29.175Z,24.92
2022-10-26T21:03:58.245Z,24.40
2022-10-26T21:06:25.733Z,26.85
2022-10-26T21:08:53.939Z,28.67
2022-10-26T21:11:22.403Z,29.88
2022-10-26T21:13:49.823Z,32.35
2022-10-26T21:16:17.279Z,43.15
2022-10-26T21:18:44.022Z,65.68
2022-10-26T21:21:10.698Z,60.58
2022-10-26T21:23:40.018Z,60.80
2022-10-26T21:26:07.778Z,56.85
2022-10-26T21:28:41.378Z,46.65
2022-10-26T21:31:10.481Z,36.28
2022-10-26T21:33:37.237Z,27.63
2022-10-26T21:36:06.023Z,26.02
2022-10-26T21:38:33.676Z,26.08
2022-10-26T21:41:18.591Z,25.90
2022-10-26T21:43:48.208Z,24.10
2022-10-26T21:46:16.107Z,21.02
2022-10-26T21:48:42.836Z,52.22
2022-10-26T21:51:17.855Z,38.10
2022-10-26T21:53:44.883Z,46.95
2022-10-26T21:56:14.405Z,67.15
2022-10-26T21:58:41.092Z,48.90
2022-10-26T22:01:08.729Z,43.95
2022-10-26T22:03:36.354Z,47.25
2022-10-26T22:06:03.592Z,39.67
2022-10-26T22:08:30.762Z,46.38
2022-10-26T22:10:58.209Z,44.97
2022-10-26T22:13:25.468Z,41.67
2022-10-26T22:16:06.458Z,40.92
2022-10-26T22:18:42.723Z,38.17
2022-10-26T22:21:10.217Z,42.60
2022-10-26T22:23:38.905Z,43.42
2022-10-26T22:26:17.144Z,41.83
2022-10-26T22:28:45.193Z,40.85
2022-10-26T22:31:23.221Z,41.55
2022-10-26T22:33:54.779Z,42.55
2022-10-26T22:36:22.444Z,42.75
2022-10-26T22:38:50.306Z,38.70
2022-10-26T22:41:18.162Z,36.08
2022-10-26T22:43:44.783Z,32.53
2022-10-26T22:46:14.334Z,33.30
2022-10-26T22:48:41.400Z,39.40
2022-10-26T22:51:13.877Z,37.50
2022-10-26T22:53:40.823Z,33.58
2022-10-26T22:56:09.182Z,37.35
2022-10-26T22:58:36.937Z,39.33
2022-10-26T23:01:11.046Z,32.28
2022-10-26T23:03:38.111Z,32.55
2022-10-26T23:06:08.286Z,29.23
2022-10-26T23:08:35.233Z,31.10
2022-10-26T23:11:04.373Z,44.35
2022-10-26T23:13:31.246Z,48.35
2022-10-26T23:16:14.685Z,47.35
2022-10-26T23:18:41.299Z,48.95
2022-10-26T23:21:09.808Z,50.15
2022-10-26T23:23:37.070Z,43.60
2022-10-26T23:26:09.233Z,43.40
2022-10-26T23:28:36.725Z,50.67
2022-10-26T23:31:03.447Z,50.15
2022-10-26T23:33:30.539Z,49.15
2022-10-26T23:35:57.460Z,50.20
2022-10-26T23:38:25.186Z,49.90
2022-10-26T23:40:56.755Z,53.50
2022-10-26T23:43:24.211Z,45.35
2022-10-26T23:45:50.960Z,35.65
2022-10-26T23:48:19.166Z,35.22
2022-10-26T23:50:48.643Z,35.75
2022-10-26T23:53:17.891Z,30.00
2022-10-26T23:55:45.268Z,29.27
2022-10-26T23:58:12.142Z,31.60
